sensor_id;sensor_type;location;lat;lon;timestamp;temperature;humidity
32097;DHT22;18610;49.916;8.284;2024-01-11T00:00:48;-1.80;99.90
32097;DHT22;18610;49.916;8.284;2024-01-11T00:03:16;-1.80;99.90
32097;DHT22;18610;49.916;8.284;2024-01-11T00:05:43;-1.80;99.90
32097;DHT22;18610;49.916;8.284;2024-01-11T00:08:11;-1.80;99.90
32097;DHT22;18610;49.916;8.284;2024-01-11T00:10:37;-1.80;99.90
32097;DHT22;18610;49.916;8.284;2024-01-11T00:13:04;-1.80;99.90
32097;DHT22;18610;49.916;8.284;2024-01-11T00:15:31;-1.90;99.90
32097;DHT22;18610;49.916;8.284;2024-01-11T00:17:58;-1.80;99.90
32097;DHT22;18610;49.916;8.284;2024-01-11T00:20:26;-1.80;99.90
32097;DHT22;18610;49.916;8.284;2024-01-11T00:22:52;-1.90;99.90
32097;DHT22;18610;49.916;8.284;2024-01-11T00:25:19;-1.90;99.90
32097;DHT22;18610;49.916;8.284;2024-01-11T00:27:46;-1.80;99.90
32097;DHT22;18610;49.916;8.284;2024-01-11T00:30:13;-1.80;99.90
32097;DHT22;18610;49.916;8.284;2024-01-11T00:32:39;-1.90;99.90
32097;DHT22;18610;49.916;8.284;2024-01-11T00:35:06;-1.80;99.90
32097;DHT22;18610;49.916;8.284;2024-01-11T00:37:34;-1.80;99.90
32097;DHT22;18610;49.916;8.284;2024-01-11T00:40:01;-1.80;99.90
32097;DHT22;18610;49.916;8.284;2024-01-11T00:42:27;-1.80;99.90
32097;DHT22;18610;49.916;8.284;2024-01-11T00:44:54;-1.70;99.90
32097;DHT22;18610;49.916;8.284;2024-01-11T00:47:21;-1.70;99.90
32097;DHT22;18610;49.916;8.284;2024-01-11T00:49:47;-1.70;99.90
32097;DHT22;18610;49.916;8.284;2024-01-11T00:52:14;-1.70;99.90
32097;DHT22;18610;49.916;8.284;2024-01-11T00:54:42;-1.70;99.90
32097;DHT22;18610;49.916;8.284;2024-01-11T00:57:09;-1.70;99.90
32097;DHT22;18610;49.916;8.284;2024-01-11T00:59:35;-1.70;99.90
32097;DHT22;18610;49.916;8.284;2024-01-11T01:02:02;-1.70;99.90
32097;DHT22;18610;49.916;8.284;2024-01-11T01:04:29;-1.70;99.90
32097;DHT22;18610;49.916;8.284;2024-01-11T01:06:56;-1.60;99.90
32097;DHT22;18610;49.916;8.284;2024-01-11T01:09:22;-1.70;99.90
32097;DHT22;18610;49.916;8.284;2024-01-11T01:11:51;-1.70;99.90
32097;DHT22;18610;49.916;8.284;2024-01-11T01:14:17;-1.70;99.90
32097;DHT22;18610;49.916;8.284;2024-01-11T01:16:44;-1.70;99.90
32097;DHT22;18610;49.916;8.284;2024-01-11T01:19:11;-1.70;99.90
32097;DHT22;18610;49.916;8.284;2024-01-11T01:21:37;-1.70;99.90
32097;DHT22;18610;49.916;8.284;2024-01-11T01:24:04;-1.70;99.90
32097;DHT22;18610;49.916;8.284;2024-01-11T01:26:31;-1.70;99.90
32097;DHT22;18610;49.916;8.284;2024-01-11T01:28:59;-1.70;99.90
32097;DHT22;18610;49.916;8.284;2024-01-11T01:31:25;-1.70;99.90
32097;DHT22;18610;49.916;8.284;2024-01-11T01:33:52;-1.70;99.90
32097;DHT22;18610;49.916;8.284;2024-01-11T01:36:19;-1.70;99.90
32097;DHT22;18610;49.916;8.284;2024-01-11T01:38:46;-1.70;99.90
32097;DHT22;18610;49.916;8.284;2024-01-11T01:41:12;-1.70;99.90
32097;DHT22;18610;49.916;8.284;2024-01-11T01:43:39;-1.70;99.90
32097;DHT22;18610;49.916;8.284;2024-01-11T01:46:07;-1.70;99.90
32097;DHT22;18610;49.916;8.284;2024-01-11T01:48:34;-1.70;99.90
32097;DHT22;18610;49.916;8.284;2024-01-11T01:51:01;-1.70;99.90
32097;DHT22;18610;49.916;8.284;2024-01-11T01:53:28;-1.70;99.90
32097;DHT22;18610;49.916;8.284;2024-01-11T01:55:55;-1.70;99.90
32097;DHT22;18610;49.916;8.284;2024-01-11T01:58:22;-1.70;99.90
32097;DHT22;18610;49.916;8.284;2024-01-11T02:00:51;-1.70;99.90
32097;DHT22;18610;49.916;8.284;2024-01-11T02:03:19;-1.70;99.90
32097;DHT22;18610;49.916;8.284;2024-01-11T02:05:46;-1.70;99.90
32097;DHT22;18610;49.916;8.284;2024-01-11T02:08:16;-1.70;99.90
32097;DHT22;18610;49.916;8.284;2024-01-11T02:10:43;-1.70;99.90
32097;DHT22;18610;49.916;8.284;2024-01-11T02:13:10;-1.70;99.90
32097;DHT22;18610;49.916;8.284;2024-01-11T02:15:37;-1.70;99.90
32097;DHT22;18610;49.916;8.284;2024-01-11T02:18:04;-1.70;99.90
32097;DHT22;18610;49.916;8.284;2024-01-11T02:20:32;-1.70;99.90
32097;DHT22;18610;49.916;8.284;2024-01-11T02:23:03;-1.80;99.90
32097;DHT22;18610;49.916;8.284;2024-01-11T02:25:32;-1.80;99.90
32097;DHT22;18610;49.916;8.284;2024-01-11T02:27:59;-1.80;99.90
32097;DHT22;18610;49.916;8.284;2024-01-11T02:30:26;-1.80;99.90
32097;DHT22;18610;49.916;8.284;2024-01-11T02:32:53;-1.80;99.90
32097;DHT22;18610;49.916;8.284;2024-01-11T02:35:20;-1.80;99.90
32097;DHT22;18610;49.916;8.284;2024-01-11T02:37:47;-1.80;99.90
32097;DHT22;18610;49.916;8.284;2024-01-11T02:40:14;-1.90;99.90
32097;DHT22;18610;49.916;8.284;2024-01-11T02:42:42;-1.90;99.90
32097;DHT22;18610;49.916;8.284;2024-01-11T02:45:10;-1.90;99.90
32097;DHT22;18610;49.916;8.284;2024-01-11T02:47:37;-2.00;99.90
32097;DHT22;18610;49.916;8.284;2024-01-11T02:50:04;-2.00;99.90
32097;DHT22;18610;49.916;8.284;2024-01-11T02:52:31;-2.00;99.90
32097;DHT22;18610;49.916;8.284;2024-01-11T02:54:57;-2.00;99.90
32097;DHT22;18610;49.916;8.284;2024-01-11T02:57:24;-2.00;99.90
32097;DHT22;18610;49.916;8.284;2024-01-11T02:59:52;-2.00;99.90
32097;DHT22;18610;49.916;8.284;2024-01-11T03:02:19;-2.00;99.90
32097;DHT22;18610;49.916;8.284;2024-01-11T03:04:45;-2.00;99.90
32097;DHT22;18610;49.916;8.284;2024-01-11T03:07:12;-2.00;99.90
32097;DHT22;18610;49.916;8.284;2024-01-11T03:09:39;-2.00;99.90
32097;DHT22;18610;49.916;8.284;2024-01-11T03:12:06;-2.00;99.90
32097;DHT22;18610;49.916;8.284;2024-01-11T03:14:33;-2.10;99.90
32097;DHT22;18610;49.916;8.284;2024-01-11T03:17:05;-2.10;99.90
32097;DHT22;18610;49.916;8.284;2024-01-11T03:19:31;-2.10;99.90
32097;DHT22;18610;49.916;8.284;2024-01-11T03:21:58;-2.10;99.90
32097;DHT22;18610;49.916;8.284;2024-01-11T03:24:28;-2.10;99.90
32097;DHT22;18610;49.916;8.284;2024-01-11T03:26:55;-2.10;99.90
32097;DHT22;18610;49.916;8.284;2024-01-11T03:29:21;-2.10;99.90
32097;DHT22;18610;49.916;8.284;2024-01-11T03:31:48;-2.10;99.90
32097;DHT22;18610;49.916;8.284;2024-01-11T03:34:16;-2.20;99.90
32097;DHT22;18610;49.916;8.284;2024-01-11T03:36:43;-2.20;99.90
32097;DHT22;18610;49.916;8.284;2024-01-11T03:39:09;-2.20;99.90
32097;DHT22;18610;49.916;8.284;2024-01-11T03:41:36;-2.20;99.90
32097;DHT22;18610;49.916;8.284;2024-01-11T03:44:03;-2.20;99.90
32097;DHT22;18610;49.916;8.284;2024-01-11T03:46:29;-2.20;99.90
32097;DHT22;18610;49.916;8.284;2024-01-11T03:48:56;-2.20;99.90
32097;DHT22;18610;49.916;8.284;2024-01-11T03:51:25;-2.30;99.90
32097;DHT22;18610;49.916;8.284;2024-01-11T03:53:52;-2.30;99.90
32097;DHT22;18610;49.916;8.284;2024-01-11T03:56:18;-2.30;99.90
32097;DHT22;18610;49.916;8.284;2024-01-11T03:58:45;-2.30;99.90
32097;DHT22;18610;49.916;8.284;2024-01-11T04:01:12;-2.30;99.90
32097;DHT22;18610;49.916;8.284;2024-01-11T04:03:38;-2.30;99.90
32097;DHT22;18610;49.916;8.284;2024-01-11T04:06:08;-2.30;99.90
32097;DHT22;18610;49.916;8.284;2024-01-11T04:08:36;-2.30;99.90
32097;DHT22;18610;49.916;8.284;2024-01-11T04:11:03;-2.30;99.90
32097;DHT22;18610;49.916;8.284;2024-01-11T04:13:30;-2.40;99.90
32097;DHT22;18610;49.916;8.284;2024-01-11T04:15:57;-2.30;99.90
32097;DHT22;18610;49.916;8.284;2024-01-11T04:18:23;-2.40;99.90
32097;DHT22;18610;49.916;8.284;2024-01-11T04:20:50;-2.40;99.90
32097;DHT22;18610;49.916;8.284;2024-01-11T04:23:17;-2.40;99.90
32097;DHT22;18610;49.916;8.284;2024-01-11T04:25:45;-2.40;99.90
32097;DHT22;18610;49.916;8.284;2024-01-11T04:28:12;-2.40;99.90
32097;DHT22;18610;49.916;8.284;2024-01-11T04:30:38;-2.40;99.90
32097;DHT22;18610;49.916;8.284;2024-01-11T04:33:05;-2.40;99.90
32097;DHT22;18610;49.916;8.284;2024-01-11T04:35:32;-2.40;99.90
32097;DHT22;18610;49.916;8.284;2024-01-11T04:37:58;-2.40;99.90
32097;DHT22;18610;49.916;8.284;2024-01-11T04:40:25;-2.50;99.90
32097;DHT22;18610;49.916;8.284;2024-01-11T04:42:53;-2.50;99.90
32097;DHT22;18610;49.916;8.284;2024-01-11T04:45:19;-2.50;99.90
32097;DHT22;18610;49.916;8.284;2024-01-11T04:47:47;-2.50;99.90
32097;DHT22;18610;49.916;8.284;2024-01-11T04:50:16;-2.60;99.90
32097;DHT22;18610;49.916;8.284;2024-01-11T04:52:43;-2.70;99.90
32097;DHT22;18610;49.916;8.284;2024-01-11T04:55:09;-2.70;99.90
32097;DHT22;18610;49.916;8.284;2024-01-11T04:57:38;-2.70;99.90
32097;DHT22;18610;49.916;8.284;2024-01-11T05:00:07;-2.80;99.90
32097;DHT22;18610;49.916;8.284;2024-01-11T05:02:34;-2.80;99.90
32097;DHT22;18610;49.916;8.284;2024-01-11T05:05:01;-2.70;99.90
32097;DHT22;18610;49.916;8.284;2024-01-11T05:07:28;-2.70;99.90
32097;DHT22;18610;49.916;8.284;2024-01-11T05:09:54;-2.70;99.90
32097;DHT22;18610;49.916;8.284;2024-01-11T05:12:21;-2.70;99.90
32097;DHT22;18610;49.916;8.284;2024-01-11T05:14:47;-2.70;99.90
32097;DHT22;18610;49.916;8.284;2024-01-11T05:17:15;-2.70;99.90
32097;DHT22;18610;49.916;8.284;2024-01-11T05:19:42;-2.60;99.90
32097;DHT22;18610;49.916;8.284;2024-01-11T05:22:09;-2.60;99.90
32097;DHT22;18610;49.916;8.284;2024-01-11T05:24:35;-2.70;99.90
32097;DHT22;18610;49.916;8.284;2024-01-11T05:27:02;-2.70;99.90
32097;DHT22;18610;49.916;8.284;2024-01-11T05:29:29;-2.70;99.90
32097;DHT22;18610;49.916;8.284;2024-01-11T05:31:56;-2.70;99.90
32097;DHT22;18610;49.916;8.284;2024-01-11T05:34:24;-2.70;99.90
32097;DHT22;18610;49.916;8.284;2024-01-11T05:36:50;-2.70;99.90
32097;DHT22;18610;49.916;8.284;2024-01-11T05:39:17;-2.70;99.90
32097;DHT22;18610;49.916;8.284;2024-01-11T05:41:44;-2.70;99.90
32097;DHT22;18610;49.916;8.284;2024-01-11T05:44:11;-2.70;99.90
32097;DHT22;18610;49.916;8.284;2024-01-11T05:46:37;-2.80;99.90
32097;DHT22;18610;49.916;8.284;2024-01-11T05:49:04;-2.80;99.90
32097;DHT22;18610;49.916;8.284;2024-01-11T05:51:32;-2.80;99.90
32097;DHT22;18610;49.916;8.284;2024-01-11T05:53:59;-2.80;99.90
32097;DHT22;18610;49.916;8.284;2024-01-11T05:56:25;-2.80;99.90
32097;DHT22;18610;49.916;8.284;2024-01-11T05:58:52;-2.80;99.90
32097;DHT22;18610;49.916;8.284;2024-01-11T06:01:19;-2.80;99.90
32097;DHT22;18610;49.916;8.284;2024-01-11T06:03:46;-2.80;99.90
32097;DHT22;18610;49.916;8.284;2024-01-11T06:06:13;-2.80;99.90
32097;DHT22;18610;49.916;8.284;2024-01-11T06:08:41;-2.80;99.90
32097;DHT22;18610;49.916;8.284;2024-01-11T06:11:09;-2.80;99.90
32097;DHT22;18610;49.916;8.284;2024-01-11T06:13:35;-2.80;99.90
32097;DHT22;18610;49.916;8.284;2024-01-11T06:16:02;-2.80;99.90
32097;DHT22;18610;49.916;8.284;2024-01-11T06:18:29;-2.90;99.90
32097;DHT22;18610;49.916;8.284;2024-01-11T06:20:56;-2.90;99.90
32097;DHT22;18610;49.916;8.284;2024-01-11T06:23:24;-2.90;99.90
32097;DHT22;18610;49.916;8.284;2024-01-11T06:25:52;-2.90;99.90
32097;DHT22;18610;49.916;8.284;2024-01-11T06:28:19;-2.90;99.90
32097;DHT22;18610;49.916;8.284;2024-01-11T06:30:46;-2.90;99.90
32097;DHT22;18610;49.916;8.284;2024-01-11T06:33:12;-2.90;99.90
32097;DHT22;18610;49.916;8.284;2024-01-11T06:35:39;-3.00;99.90
32097;DHT22;18610;49.916;8.284;2024-01-11T06:38:06;-3.00;99.90
32097;DHT22;18610;49.916;8.284;2024-01-11T06:40:33;-3.00;99.90
32097;DHT22;18610;49.916;8.284;2024-01-11T06:43:01;-3.00;99.90
32097;DHT22;18610;49.916;8.284;2024-01-11T06:45:27;-3.00;99.90
32097;DHT22;18610;49.916;8.284;2024-01-11T06:47:54;-3.10;99.90
32097;DHT22;18610;49.916;8.284;2024-01-11T06:50:20;-3.10;99.90
32097;DHT22;18610;49.916;8.284;2024-01-11T06:52:47;-3.10;99.90
32097;DHT22;18610;49.916;8.284;2024-01-11T06:55:14;-3.20;99.90
32097;DHT22;18610;49.916;8.284;2024-01-11T06:57:41;-3.20;99.90
32097;DHT22;18610;49.916;8.284;2024-01-11T07:00:10;-3.20;99.90
32097;DHT22;18610;49.916;8.284;2024-01-11T07:02:36;-3.20;99.90
32097;DHT22;18610;49.916;8.284;2024-01-11T07:05:05;-3.20;99.90
32097;DHT22;18610;49.916;8.284;2024-01-11T07:07:33;-3.20;99.90
32097;DHT22;18610;49.916;8.284;2024-01-11T07:10:00;-3.20;99.90
32097;DHT22;18610;49.916;8.284;2024-01-11T07:12:31;-3.20;99.90
32097;DHT22;18610;49.916;8.284;2024-01-11T07:14:57;-3.20;99.90
32097;DHT22;18610;49.916;8.284;2024-01-11T07:17:25;-3.20;99.90
32097;DHT22;18610;49.916;8.284;2024-01-11T07:19:52;-3.20;99.90
32097;DHT22;18610;49.916;8.284;2024-01-11T07:22:19;-3.20;99.90
32097;DHT22;18610;49.916;8.284;2024-01-11T07:24:45;-3.20;99.90
32097;DHT22;18610;49.916;8.284;2024-01-11T07:27:12;-3.20;99.90
32097;DHT22;18610;49.916;8.284;2024-01-11T07:29:39;-3.20;99.90
32097;DHT22;18610;49.916;8.284;2024-01-11T07:32:05;-3.20;99.90
32097;DHT22;18610;49.916;8.284;2024-01-11T07:34:33;-3.20;99.90
32097;DHT22;18610;49.916;8.284;2024-01-11T07:37:00;-3.20;99.90
32097;DHT22;18610;49.916;8.284;2024-01-11T07:39:27;-3.20;99.90
32097;DHT22;18610;49.916;8.284;2024-01-11T07:41:56;-3.30;99.90
32097;DHT22;18610;49.916;8.284;2024-01-11T07:44:23;-3.20;99.90
32097;DHT22;18610;49.916;8.284;2024-01-11T07:46:49;-3.20;99.90
32097;DHT22;18610;49.916;8.284;2024-01-11T07:49:16;-3.20;99.90
32097;DHT22;18610;49.916;8.284;2024-01-11T07:51:44;-3.20;99.90
32097;DHT22;18610;49.916;8.284;2024-01-11T07:54:11;-3.20;99.90
32097;DHT22;18610;49.916;8.284;2024-01-11T07:56:37;-3.10;99.90
32097;DHT22;18610;49.916;8.284;2024-01-11T07:59:04;-3.00;99.90
32097;DHT22;18610;49.916;8.284;2024-01-11T08:01:31;-3.00;99.90
32097;DHT22;18610;49.916;8.284;2024-01-11T08:04:00;-2.90;99.90
32097;DHT22;18610;49.916;8.284;2024-01-11T08:06:28;-2.90;99.90
32097;DHT22;18610;49.916;8.284;2024-01-11T08:08:56;-2.80;99.90
32097;DHT22;18610;49.916;8.284;2024-01-11T08:11:26;-2.70;99.90
32097;DHT22;18610;49.916;8.284;2024-01-11T08:13:54;-2.60;99.90
32097;DHT22;18610;49.916;8.284;2024-01-11T08:16:21;-2.60;99.90
32097;DHT22;18610;49.916;8.284;2024-01-11T08:18:48;-2.50;99.90
32097;DHT22;18610;49.916;8.284;2024-01-11T08:21:15;-2.40;99.90
32097;DHT22;18610;49.916;8.284;2024-01-11T08:23:41;-2.30;99.90
32097;DHT22;18610;49.916;8.284;2024-01-11T08:26:12;-2.20;99.90
32097;DHT22;18610;49.916;8.284;2024-01-11T08:28:39;-2.10;99.90
32097;DHT22;18610;49.916;8.284;2024-01-11T08:31:07;-2.00;99.90
32097;DHT22;18610;49.916;8.284;2024-01-11T08:33:34;-1.90;99.90
32097;DHT22;18610;49.916;8.284;2024-01-11T08:36:03;-1.80;99.90
32097;DHT22;18610;49.916;8.284;2024-01-11T08:38:30;-1.70;99.90
32097;DHT22;18610;49.916;8.284;2024-01-11T08:40:57;-1.60;99.90
32097;DHT22;18610;49.916;8.284;2024-01-11T08:43:26;-1.50;99.90
32097;DHT22;18610;49.916;8.284;2024-01-11T08:45:56;-1.40;99.90
32097;DHT22;18610;49.916;8.284;2024-01-11T08:48:23;-1.20;99.90
32097;DHT22;18610;49.916;8.284;2024-01-11T08:50:50;-1.10;99.90
32097;DHT22;18610;49.916;8.284;2024-01-11T08:53:16;-1.10;99.90
32097;DHT22;18610;49.916;8.284;2024-01-11T08:55:43;-1.00;99.90
32097;DHT22;18610;49.916;8.284;2024-01-11T08:58:10;-0.90;99.90
32097;DHT22;18610;49.916;8.284;2024-01-11T09:00:38;-0.80;99.90
32097;DHT22;18610;49.916;8.284;2024-01-11T09:03:05;-0.70;99.90
32097;DHT22;18610;49.916;8.284;2024-01-11T09:05:32;-0.60;99.90
32097;DHT22;18610;49.916;8.284;2024-01-11T09:07:58;-0.50;99.90
32097;DHT22;18610;49.916;8.284;2024-01-11T09:10:25;-0.30;99.90
32097;DHT22;18610;49.916;8.284;2024-01-11T09:12:52;-0.10;99.90
32097;DHT22;18610;49.916;8.284;2024-01-11T09:15:20;0.00;99.90
32097;DHT22;18610;49.916;8.284;2024-01-11T09:17:48;0.30;99.90
32097;DHT22;18610;49.916;8.284;2024-01-11T09:20:15;0.40;99.90
32097;DHT22;18610;49.916;8.284;2024-01-11T09:22:41;0.60;99.90
32097;DHT22;18610;49.916;8.284;2024-01-11T09:25:08;0.80;99.90
32097;DHT22;18610;49.916;8.284;2024-01-11T09:27:35;1.10;99.90
32097;DHT22;18610;49.916;8.284;2024-01-11T09:30:02;1.30;99.90
32097;DHT22;18610;49.916;8.284;2024-01-11T09:32:29;1.50;99.60
32097;DHT22;18610;49.916;8.284;2024-01-11T09:34:57;1.70;99.30
32097;DHT22;18610;49.916;8.284;2024-01-11T09:37:24;1.90;99.00
32097;DHT22;18610;49.916;8.284;2024-01-11T09:39:51;2.00;98.70
32097;DHT22;18610;49.916;8.284;2024-01-11T09:42:18;2.10;98.50
32097;DHT22;18610;49.916;8.284;2024-01-11T09:44:46;2.40;97.60
32097;DHT22;18610;49.916;8.284;2024-01-11T09:47:15;2.50;97.20
32097;DHT22;18610;49.916;8.284;2024-01-11T09:49:44;2.80;96.60
32097;DHT22;18610;49.916;8.284;2024-01-11T09:52:13;2.90;96.00
32097;DHT22;18610;49.916;8.284;2024-01-11T09:54:41;3.10;95.30
32097;DHT22;18610;49.916;8.284;2024-01-11T09:57:09;3.30;94.70
32097;DHT22;18610;49.916;8.284;2024-01-11T09:59:36;3.50;94.30
32097;DHT22;18610;49.916;8.284;2024-01-11T10:02:03;3.70;94.10
32097;DHT22;18610;49.916;8.284;2024-01-11T10:04:33;4.00;92.90
32097;DHT22;18610;49.916;8.284;2024-01-11T10:07:00;4.10;92.40
32097;DHT22;18610;49.916;8.284;2024-01-11T10:09:29;4.40;92.30
32097;DHT22;18610;49.916;8.284;2024-01-11T10:11:56;4.50;91.60
32097;DHT22;18610;49.916;8.284;2024-01-11T10:14:23;4.60;91.40
32097;DHT22;18610;49.916;8.284;2024-01-11T10:16:49;4.70;91.20
32097;DHT22;18610;49.916;8.284;2024-01-11T10:19:16;4.90;91.10
32097;DHT22;18610;49.916;8.284;2024-01-11T10:21:44;5.10;90.10
32097;DHT22;18610;49.916;8.284;2024-01-11T10:24:17;5.20;90.30
32097;DHT22;18610;49.916;8.284;2024-01-11T10:26:45;5.30;89.80
32097;DHT22;18610;49.916;8.284;2024-01-11T10:29:12;5.50;88.30
32097;DHT22;18610;49.916;8.284;2024-01-11T10:31:39;5.60;88.00
32097;DHT22;18610;49.916;8.284;2024-01-11T10:34:05;5.60;88.30
32097;DHT22;18610;49.916;8.284;2024-01-11T10:36:32;5.70;87.40
32097;DHT22;18610;49.916;8.284;2024-01-11T10:39:02;5.90;85.60
32097;DHT22;18610;49.916;8.284;2024-01-11T10:41:32;6.00;84.80
32097;DHT22;18610;49.916;8.284;2024-01-11T10:44:08;6.10;84.00
32097;DHT22;18610;49.916;8.284;2024-01-11T10:46:42;6.30;82.50
32097;DHT22;18610;49.916;8.284;2024-01-11T10:49:11;6.40;82.10
32097;DHT22;18610;49.916;8.284;2024-01-11T10:51:45;6.50;81.00
32097;DHT22;18610;49.916;8.284;2024-01-11T10:54:13;6.70;80.30
32097;DHT22;18610;49.916;8.284;2024-01-11T10:56:40;6.80;79.50
32097;DHT22;18610;49.916;8.284;2024-01-11T10:59:10;6.90;78.90
32097;DHT22;18610;49.916;8.284;2024-01-11T11:01:38;7.10;78.30
32097;DHT22;18610;49.916;8.284;2024-01-11T11:04:07;7.20;77.90
32097;DHT22;18610;49.916;8.284;2024-01-11T11:06:34;7.50;76.30
32097;DHT22;18610;49.916;8.284;2024-01-11T11:09:01;7.80;75.40
32097;DHT22;18610;49.916;8.284;2024-01-11T11:11:30;8.20;74.00
32097;DHT22;18610;49.916;8.284;2024-01-11T11:13:58;8.60;72.40
32097;DHT22;18610;49.916;8.284;2024-01-11T11:16:28;9.10;69.20
32097;DHT22;18610;49.916;8.284;2024-01-11T11:18:56;9.70;65.80
32097;DHT22;18610;49.916;8.284;2024-01-11T11:21:23;10.60;62.30
32097;DHT22;18610;49.916;8.284;2024-01-11T11:23:50;11.70;59.20
32097;DHT22;18610;49.916;8.284;2024-01-11T11:26:17;12.80;56.60
32097;DHT22;18610;49.916;8.284;2024-01-11T11:28:44;13.80;53.50
32097;DHT22;18610;49.916;8.284;2024-01-11T11:31:11;14.60;51.00
32097;DHT22;18610;49.916;8.284;2024-01-11T11:33:40;15.30;49.50
32097;DHT22;18610;49.916;8.284;2024-01-11T11:36:12;15.90;47.40
32097;DHT22;18610;49.916;8.284;2024-01-11T11:38:39;16.50;45.40
32097;DHT22;18610;49.916;8.284;2024-01-11T11:41:07;16.90;44.30
32097;DHT22;18610;49.916;8.284;2024-01-11T11:43:33;17.40;43.00
32097;DHT22;18610;49.916;8.284;2024-01-11T11:46:01;17.70;42.30
32097;DHT22;18610;49.916;8.284;2024-01-11T11:48:52;17.90;41.50
32097;DHT22;18610;49.916;8.284;2024-01-11T11:51:21;18.20;40.50
32097;DHT22;18610;49.916;8.284;2024-01-11T11:53:48;18.40;40.30
32097;DHT22;18610;49.916;8.284;2024-01-11T11:56:17;18.60;39.90
32097;DHT22;18610;49.916;8.284;2024-01-11T11:58:45;18.80;39.40
32097;DHT22;18610;49.916;8.284;2024-01-11T12:01:14;18.90;39.00
32097;DHT22;18610;49.916;8.284;2024-01-11T12:03:43;18.90;39.20
32097;DHT22;18610;49.916;8.284;2024-01-11T12:06:16;19.00;39.00
32097;DHT22;18610;49.916;8.284;2024-01-11T12:08:43;19.00;38.40
32097;DHT22;18610;49.916;8.284;2024-01-11T12:11:13;18.90;38.30
32097;DHT22;18610;49.916;8.284;2024-01-11T12:13:40;18.80;38.70
32097;DHT22;18610;49.916;8.284;2024-01-11T12:16:10;18.80;38.60
32097;DHT22;18610;49.916;8.284;2024-01-11T12:18:36;18.80;38.50
32097;DHT22;18610;49.916;8.284;2024-01-11T12:21:03;18.80;38.30
32097;DHT22;18610;49.916;8.284;2024-01-11T12:23:32;18.70;38.40
32097;DHT22;18610;49.916;8.284;2024-01-11T12:26:01;18.60;38.50
32097;DHT22;18610;49.916;8.284;2024-01-11T12:28:31;18.40;38.90
32097;DHT22;18610;49.916;8.284;2024-01-11T12:30:57;18.30;39.00
32097;DHT22;18610;49.916;8.284;2024-01-11T12:33:25;18.00;39.20
32097;DHT22;18610;49.916;8.284;2024-01-11T12:35:52;17.70;39.50
32097;DHT22;18610;49.916;8.284;2024-01-11T12:38:19;17.20;40.30
32097;DHT22;18610;49.916;8.284;2024-01-11T12:40:47;16.90;40.40
32097;DHT22;18610;49.916;8.284;2024-01-11T12:43:15;16.80;41.00
32097;DHT22;18610;49.916;8.284;2024-01-11T12:45:42;16.70;41.80
32097;DHT22;18610;49.916;8.284;2024-01-11T12:48:09;16.50;41.50
32097;DHT22;18610;49.916;8.284;2024-01-11T12:50:40;16.30;41.40
32097;DHT22;18610;49.916;8.284;2024-01-11T12:53:07;16.20;41.70
32097;DHT22;18610;49.916;8.284;2024-01-11T12:55:35;16.10;42.00
32097;DHT22;18610;49.916;8.284;2024-01-11T12:58:07;16.10;41.80
32097;DHT22;18610;49.916;8.284;2024-01-11T13:00:35;16.00;42.00
32097;DHT22;18610;49.916;8.284;2024-01-11T13:03:02;15.90;42.10
32097;DHT22;18610;49.916;8.284;2024-01-11T13:05:29;15.70;42.40
32097;DHT22;18610;49.916;8.284;2024-01-11T13:08:00;15.70;42.10
32097;DHT22;18610;49.916;8.284;2024-01-11T13:10:28;15.60;41.90
32097;DHT22;18610;49.916;8.284;2024-01-11T13:12:55;15.70;42.30
32097;DHT22;18610;49.916;8.284;2024-01-11T13:15:23;15.50;42.50
32097;DHT22;18610;49.916;8.284;2024-01-11T13:17:50;15.50;42.70
32097;DHT22;18610;49.916;8.284;2024-01-11T13:20:17;15.50;42.20
32097;DHT22;18610;49.916;8.284;2024-01-11T13:22:44;15.50;43.10
32097;DHT22;18610;49.916;8.284;2024-01-11T13:25:11;15.40;42.60
32097;DHT22;18610;49.916;8.284;2024-01-11T13:27:37;15.30;42.80
32097;DHT22;18610;49.916;8.284;2024-01-11T13:30:05;15.20;42.60
32097;DHT22;18610;49.916;8.284;2024-01-11T13:32:35;15.20;42.80
32097;DHT22;18610;49.916;8.284;2024-01-11T13:35:01;15.10;42.90
32097;DHT22;18610;49.916;8.284;2024-01-11T13:37:29;15.00;43.00
32097;DHT22;18610;49.916;8.284;2024-01-11T13:39:56;14.90;43.30
32097;DHT22;18610;49.916;8.284;2024-01-11T13:42:22;14.80;43.20
32097;DHT22;18610;49.916;8.284;2024-01-11T13:44:49;14.70;43.20
32097;DHT22;18610;49.916;8.284;2024-01-11T13:47:16;14.60;43.30
32097;DHT22;18610;49.916;8.284;2024-01-11T13:49:44;14.50;43.70
32097;DHT22;18610;49.916;8.284;2024-01-11T13:52:11;14.40;43.90
32097;DHT22;18610;49.916;8.284;2024-01-11T13:54:37;14.30;44.10
32097;DHT22;18610;49.916;8.284;2024-01-11T13:57:04;14.20;44.40
32097;DHT22;18610;49.916;8.284;2024-01-11T13:59:32;14.00;44.70
32097;DHT22;18610;49.916;8.284;2024-01-11T14:01:59;13.80;45.40
32097;DHT22;18610;49.916;8.284;2024-01-11T14:04:25;13.70;45.70
32097;DHT22;18610;49.916;8.284;2024-01-11T14:06:53;13.50;45.60
32097;DHT22;18610;49.916;8.284;2024-01-11T14:09:20;13.40;45.90
32097;DHT22;18610;49.916;8.284;2024-01-11T14:11:48;13.20;46.20
32097;DHT22;18610;49.916;8.284;2024-01-11T14:14:15;13.20;46.40
32097;DHT22;18610;49.916;8.284;2024-01-11T14:16:44;13.20;46.50
32097;DHT22;18610;49.916;8.284;2024-01-11T14:19:11;13.20;46.60
32097;DHT22;18610;49.916;8.284;2024-01-11T14:21:37;13.10;46.90
32097;DHT22;18610;49.916;8.284;2024-01-11T14:24:06;13.00;46.90
32097;DHT22;18610;49.916;8.284;2024-01-11T14:26:33;12.80;47.30
32097;DHT22;18610;49.916;8.284;2024-01-11T14:29:00;12.70;47.40
32097;DHT22;18610;49.916;8.284;2024-01-11T14:31:27;12.60;47.60
32097;DHT22;18610;49.916;8.284;2024-01-11T14:33:54;12.60;47.70
32097;DHT22;18610;49.916;8.284;2024-01-11T14:36:21;12.40;48.10
32097;DHT22;18610;49.916;8.284;2024-01-11T14:38:48;12.20;48.50
32097;DHT22;18610;49.916;8.284;2024-01-11T14:41:16;12.20;48.70
32097;DHT22;18610;49.916;8.284;2024-01-11T14:43:43;12.10;48.50
32097;DHT22;18610;49.916;8.284;2024-01-11T14:46:11;12.00;48.40
32097;DHT22;18610;49.916;8.284;2024-01-11T14:48:39;12.00;48.40
32097;DHT22;18610;49.916;8.284;2024-01-11T14:51:06;12.00;48.70
32097;DHT22;18610;49.916;8.284;2024-01-11T14:53:34;11.90;48.90
32097;DHT22;18610;49.916;8.284;2024-01-11T14:56:00;11.70;49.30
32097;DHT22;18610;49.916;8.284;2024-01-11T14:58:29;11.50;50.00
32097;DHT22;18610;49.916;8.284;2024-01-11T15:00:56;11.10;50.60
32097;DHT22;18610;49.916;8.284;2024-01-11T15:03:23;10.60;51.60
32097;DHT22;18610;49.916;8.284;2024-01-11T15:05:50;10.10;52.20
32097;DHT22;18610;49.916;8.284;2024-01-11T15:08:19;9.60;53.10
32097;DHT22;18610;49.916;8.284;2024-01-11T15:10:46;9.20;53.50
32097;DHT22;18610;49.916;8.284;2024-01-11T15:13:13;8.70;55.00
32097;DHT22;18610;49.916;8.284;2024-01-11T15:15:41;8.10;56.80
32097;DHT22;18610;49.916;8.284;2024-01-11T15:18:07;7.70;57.90
32097;DHT22;18610;49.916;8.284;2024-01-11T15:20:34;7.30;58.90
32097;DHT22;18610;49.916;8.284;2024-01-11T15:23:01;6.90;60.20
32097;DHT22;18610;49.916;8.284;2024-01-11T15:25:28;6.50;61.50
32097;DHT22;18610;49.916;8.284;2024-01-11T15:27:55;6.10;62.70
32097;DHT22;18610;49.916;8.284;2024-01-11T15:30:22;5.90;63.90
32097;DHT22;18610;49.916;8.284;2024-01-11T15:32:50;5.60;64.90